sensor_id;sensor_type;location;lat;lon;timestamp;P1;durP1;ratioP1;P2;durP2;ratioP2
74469;SDS011;62918;55.706;37.816;2022-08-21T00:00:08;48.35;;;34.25;;
74469;SDS011;62918;55.706;37.816;2022-08-21T00:00:42;49.17;;;33.67;;
74469;SDS011;62918;55.706;37.816;2022-08-21T00:01:14;51.42;;;35.90;;
74469;SDS011;62918;55.706;37.816;2022-08-21T00:01:48;51.05;;;34.47;;
74469;SDS011;62918;55.706;37.816;2022-08-21T00:02:19;51.92;;;33.88;;
74469;SDS011;62918;55.706;37.816;2022-08-21T00:02:54;50.03;;;35.00;;
74469;SDS011;62918;55.706;37.816;2022-08-21T00:03:31;51.25;;;35.63;;
74469;SDS011;62918;55.706;37.816;2022-08-21T00:04:06;47.78;;;35.80;;
74469;SDS011;62918;55.706;37.816;2022-08-21T00:04:37;47.05;;;32.38;;
74469;SDS011;62918;55.706;37.816;2022-08-21T00:05:08;52.55;;;34.67;;
74469;SDS011;62918;55.706;37.816;2022-08-21T00:05:40;47.10;;;33.38;;
74469;SDS011;62918;55.706;37.816;2022-08-21T00:06:13;54.50;;;36.25;;
74469;SDS011;62918;55.706;37.816;2022-08-21T00:06:44;46.83;;;34.45;;
74469;SDS011;62918;55.706;37.816;2022-08-21T00:07:15;52.75;;;33.63;;
74469;SDS011;62918;55.706;37.816;2022-08-21T00:07:46;44.78;;;32.25;;
74469;SDS011;62918;55.706;37.816;2022-08-21T00:08:17;44.65;;;33.13;;
74469;SDS011;62918;55.706;37.816;2022-08-21T00:09:20;49.03;;;32.60;;
74469;SDS011;62918;55.706;37.816;2022-08-21T00:09:51;50.25;;;32.75;;
74469;SDS011;62918;55.706;37.816;2022-08-21T00:10:22;51.05;;;36.67;;
74469;SDS011;62918;55.706;37.816;2022-08-21T00:10:52;49.13;;;32.25;;
74469;SDS011;62918;55.706;37.816;2022-08-21T00:11:23;49.67;;;34.72;;
74469;SDS011;62918;55.706;37.816;2022-08-21T00:11:53;49.83;;;34.20;;
74469;SDS011;62918;55.706;37.816;2022-08-21T00:12:24;49.20;;;34.35;;
74469;SDS011;62918;55.706;37.816;2022-08-21T00:12:55;49.53;;;35.25;;
74469;SDS011;62918;55.706;37.816;2022-08-21T00:13:26;48.30;;;34.58;;
74469;SDS011;62918;55.706;37.816;2022-08-21T00:13:56;51.05;;;35.80;;
74469;SDS011;62918;55.706;37.816;2022-08-21T00:14:27;51.25;;;33.78;;
74469;SDS011;62918;55.706;37.816;2022-08-21T00:14:58;46.67;;;34.42;;
74469;SDS011;62918;55.706;37.816;2022-08-21T00:15:29;48.55;;;31.77;;
74469;SDS011;62918;55.706;37.816;2022-08-21T00:16:06;50.22;;;33.33;;
74469;SDS011;62918;55.706;37.816;2022-08-21T00:16:36;47.70;;;33.05;;
74469;SDS011;62918;55.706;37.816;2022-08-21T00:17:08;45.50;;;33.33;;
74469;SDS011;62918;55.706;37.816;2022-08-21T00:17:39;49.88;;;32.97;;
74469;SDS011;62918;55.706;37.816;2022-08-21T00:18:10;47.40;;;33.38;;
74469;SDS011;62918;55.706;37.816;2022-08-21T00:18:40;46.25;;;32.72;;
74469;SDS011;62918;55.706;37.816;2022-08-21T00:19:11;45.95;;;33.05;;
74469;SDS011;62918;55.706;37.816;2022-08-21T00:19:42;47.08;;;33.45;;
74469;SDS011;62918;55.706;37.816;2022-08-21T00:20:13;49.40;;;32.75;;
74469;SDS011;62918;55.706;37.816;2022-08-21T00:20:45;46.53;;;31.42;;
74469;SDS011;62918;55.706;37.816;2022-08-21T00:21:16;46.72;;;30.85;;
74469;SDS011;62918;55.706;37.816;2022-08-21T00:21:47;43.88;;;32.15;;
74469;SDS011;62918;55.706;37.816;2022-08-21T00:22:18;45.85;;;32.67;;
74469;SDS011;62918;55.706;37.816;2022-08-21T00:22:49;47.47;;;31.63;;
74469;SDS011;62918;55.706;37.816;2022-08-21T00:23:20;50.28;;;32.83;;
74469;SDS011;62918;55.706;37.816;2022-08-21T00:23:51;49.15;;;32.72;;
74469;SDS011;62918;55.706;37.816;2022-08-21T00:24:23;42.40;;;31.58;;
74469;SDS011;62918;55.706;37.816;2022-08-21T00:24:54;45.33;;;32.58;;
74469;SDS011;62918;55.706;37.816;2022-08-21T00:25:24;46.38;;;31.92;;
74469;SDS011;62918;55.706;37.816;2022-08-21T00:25:55;49.92;;;32.40;;
74469;SDS011;62918;55.706;37.816;2022-08-21T00:26:25;46.83;;;33.58;;
74469;SDS011;62918;55.706;37.816;2022-08-21T00:26:56;48.15;;;31.92;;
74469;SDS011;62918;55.706;37.816;2022-08-21T00:27:27;42.88;;;32.03;;
74469;SDS011;62918;55.706;37.816;2022-08-21T00:27:57;48.85;;;33.05;;
74469;SDS011;62918;55.706;37.816;2022-08-21T00:28:28;47.65;;;31.52;;
74469;SDS011;62918;55.706;37.816;2022-08-21T00:28:59;41.80;;;31.63;;
74469;SDS011;62918;55.706;37.816;2022-08-21T00:29:29;44.40;;;31.48;;
74469;SDS011;62918;55.706;37.816;2022-08-21T00:30:00;42.08;;;31.90;;
74469;SDS011;62918;55.706;37.816;2022-08-21T00:30:31;48.10;;;32.65;;
74469;SDS011;62918;55.706;37.816;2022-08-21T00:31:01;42.40;;;30.92;;
74469;SDS011;62918;55.706;37.816;2022-08-21T00:32:04;47.33;;;30.45;;
74469;SDS011;62918;55.706;37.816;2022-08-21T00:32:36;41.42;;;30.45;;
74469;SDS011;62918;55.706;37.816;2022-08-21T00:33:09;44.08;;;31.23;;
74469;SDS011;62918;55.706;37.816;2022-08-21T00:33:40;45.25;;;32.03;;
74469;SDS011;62918;55.706;37.816;2022-08-21T00:34:12;38.95;;;29.50;;
74469;SDS011;62918;55.706;37.816;2022-08-21T00:34:43;49.78;;;30.67;;
74469;SDS011;62918;55.706;37.816;2022-08-21T00:35:16;43.45;;;30.17;;
74469;SDS011;62918;55.706;37.816;2022-08-21T00:35:48;43.60;;;31.38;;
74469;SDS011;62918;55.706;37.816;2022-08-21T00:36:18;42.55;;;30.42;;
74469;SDS011;62918;55.706;37.816;2022-08-21T00:36:49;44.15;;;31.58;;
74469;SDS011;62918;55.706;37.816;2022-08-21T00:37:19;46.60;;;33.28;;
74469;SDS011;62918;55.706;37.816;2022-08-21T00:37:50;46.60;;;31.23;;
74469;SDS011;62918;55.706;37.816;2022-08-21T00:38:21;44.33;;;32.00;;
74469;SDS011;62918;55.706;37.816;2022-08-21T00:38:51;43.67;;;28.77;;
74469;SDS011;62918;55.706;37.816;2022-08-21T00:39:22;43.53;;;30.85;;
74469;SDS011;62918;55.706;37.816;2022-08-21T00:39:52;45.95;;;31.13;;
74469;SDS011;62918;55.706;37.816;2022-08-21T00:40:26;44.38;;;30.83;;
74469;SDS011;62918;55.706;37.816;2022-08-21T00:41:01;44.95;;;31.65;;
74469;SDS011;62918;55.706;37.816;2022-08-21T00:41:35;46.80;;;30.63;;
74469;SDS011;62918;55.706;37.816;2022-08-21T00:42:07;48.25;;;30.83;;
74469;SDS011;62918;55.706;37.816;2022-08-21T00:42:38;45.15;;;32.65;;
74469;SDS011;62918;55.706;37.816;2022-08-21T00:43:10;45.30;;;32.17;;
74469;SDS011;62918;55.706;37.816;2022-08-21T00:43:42;46.20;;;30.98;;
74469;SDS011;62918;55.706;37.816;2022-08-21T00:44:13;42.85;;;29.55;;
74469;SDS011;62918;55.706;37.816;2022-08-21T00:44:45;39.92;;;31.85;;
74469;SDS011;62918;55.706;37.816;2022-08-21T00:45:17;44.83;;;31.60;;
74469;SDS011;62918;55.706;37.816;2022-08-21T00:45:47;48.17;;;30.30;;
74469;SDS011;62918;55.706;37.816;2022-08-21T00:46:18;43.50;;;31.80;;
74469;SDS011;62918;55.706;37.816;2022-08-21T00:46:49;43.58;;;31.67;;
74469;SDS011;62918;55.706;37.816;2022-08-21T00:47:19;47.63;;;31.40;;
74469;SDS011;62918;55.706;37.816;2022-08-21T00:47:51;45.13;;;30.92;;
74469;SDS011;62918;55.706;37.816;2022-08-21T00:48:22;43.55;;;31.27;;
74469;SDS011;62918;55.706;37.816;2022-08-21T00:48:54;45.20;;;31.83;;
74469;SDS011;62918;55.706;37.816;2022-08-21T00:49:25;43.88;;;31.48;;
74469;SDS011;62918;55.706;37.816;2022-08-21T00:49:55;39.30;;;28.65;;
74469;SDS011;62918;55.706;37.816;2022-08-21T00:50:40;39.72;;;30.77;;
74469;SDS011;62918;55.706;37.816;2022-08-21T00:51:20;41.30;;;30.88;;
74469;SDS011;62918;55.706;37.816;2022-08-21T00:52:02;42.92;;;29.38;;
74469;SDS011;62918;55.706;37.816;2022-08-21T00:52:36;44.95;;;31.10;;
74469;SDS011;62918;55.706;37.816;2022-08-21T00:53:07;43.25;;;31.23;;
74469;SDS011;62918;55.706;37.816;2022-08-21T00:53:42;42.92;;;30.00;;
74469;SDS011;62918;55.706;37.816;2022-08-21T00:54:15;42.95;;;29.17;;
74469;SDS011;62918;55.706;37.816;2022-08-21T00:54:48;44.92;;;29.50;;
74469;SDS011;62918;55.706;37.816;2022-08-21T00:55:20;43.63;;;29.15;;
74469;SDS011;62918;55.706;37.816;2022-08-21T00:55:53;40.38;;;30.08;;
74469;SDS011;62918;55.706;37.816;2022-08-21T00:56:25;43.58;;;30.13;;
74469;SDS011;62918;55.706;37.816;2022-08-21T00:56:57;39.58;;;29.42;;
74469;SDS011;62918;55.706;37.816;2022-08-21T00:57:36;44.10;;;30.85;;
74469;SDS011;62918;55.706;37.816;2022-08-21T00:58:11;47.78;;;30.35;;
74469;SDS011;62918;55.706;37.816;2022-08-21T00:58:43;43.63;;;30.17;;
74469;SDS011;62918;55.706;37.816;2022-08-21T00:59:16;41.72;;;30.35;;
74469;SDS011;62918;55.706;37.816;2022-08-21T00:59:49;40.50;;;30.55;;
74469;SDS011;62918;55.706;37.816;2022-08-21T01:00:25;45.47;;;30.92;;
74469;SDS011;62918;55.706;37.816;2022-08-21T01:00:58;40.75;;;28.00;;
74469;SDS011;62918;55.706;37.816;2022-08-21T01:02:02;45.20;;;29.90;;
74469;SDS011;62918;55.706;37.816;2022-08-21T01:02:35;38.38;;;27.90;;
74469;SDS011;62918;55.706;37.816;2022-08-21T01:03:07;42.67;;;28.63;;
74469;SDS011;62918;55.706;37.816;2022-08-21T01:03:43;42.30;;;29.33;;
74469;SDS011;62918;55.706;37.816;2022-08-21T01:04:13;41.88;;;29.17;;
74469;SDS011;62918;55.706;37.816;2022-08-21T01:05:16;40.22;;;28.33;;
74469;SDS011;62918;55.706;37.816;2022-08-21T01:05:47;39.38;;;27.98;;
74469;SDS011;62918;55.706;37.816;2022-08-21T01:06:17;43.05;;;28.58;;
74469;SDS011;62918;55.706;37.816;2022-08-21T01:06:48;42.40;;;29.63;;
74469;SDS011;62918;55.706;37.816;2022-08-21T01:07:19;42.47;;;29.23;;
74469;SDS011;62918;55.706;37.816;2022-08-21T01:07:50;40.38;;;28.52;;
74469;SDS011;62918;55.706;37.816;2022-08-21T01:08:21;39.72;;;27.00;;
74469;SDS011;62918;55.706;37.816;2022-08-21T01:08:52;41.92;;;28.17;;
74469;SDS011;62918;55.706;37.816;2022-08-21T01:09:23;43.33;;;30.30;;
74469;SDS011;62918;55.706;37.816;2022-08-21T01:09:53;41.20;;;27.92;;
74469;SDS011;62918;55.706;37.816;2022-08-21T01:10:24;39.63;;;27.83;;
74469;SDS011;62918;55.706;37.816;2022-08-21T01:10:55;43.00;;;28.77;;
74469;SDS011;62918;55.706;37.816;2022-08-21T01:11:27;42.42;;;27.70;;
74469;SDS011;62918;55.706;37.816;2022-08-21T01:11:57;45.63;;;30.63;;
74469;SDS011;62918;55.706;37.816;2022-08-21T01:12:28;40.95;;;29.23;;
74469;SDS011;62918;55.706;37.816;2022-08-21T01:12:59;39.80;;;29.13;;
74469;SDS011;62918;55.706;37.816;2022-08-21T01:13:30;40.08;;;28.88;;
74469;SDS011;62918;55.706;37.816;2022-08-21T01:14:06;41.72;;;29.33;;
74469;SDS011;62918;55.706;37.816;2022-08-21T01:14:36;45.80;;;30.40;;
74469;SDS011;62918;55.706;37.816;2022-08-21T01:15:08;42.05;;;29.92;;
74469;SDS011;62918;55.706;37.816;2022-08-21T01:16:14;43.60;;;27.08;;
74469;SDS011;62918;55.706;37.816;2022-08-21T01:16:48;38.38;;;27.63;;
74469;SDS011;62918;55.706;37.816;2022-08-21T01:17:21;44.83;;;29.02;;
74469;SDS011;62918;55.706;37.816;2022-08-21T01:17:52;42.13;;;28.90;;
74469;SDS011;62918;55.706;37.816;2022-08-21T01:18:23;43.70;;;29.60;;
74469;SDS011;62918;55.706;37.816;2022-08-21T01:18:54;44.88;;;30.90;;
74469;SDS011;62918;55.706;37.816;2022-08-21T01:19:25;43.10;;;28.83;;
74469;SDS011;62918;55.706;37.816;2022-08-21T01:19:57;40.58;;;28.75;;
74469;SDS011;62918;55.706;37.816;2022-08-21T01:20:28;41.55;;;27.63;;
74469;SDS011;62918;55.706;37.816;2022-08-21T01:21:34;43.25;;;27.58;;
74469;SDS011;62918;55.706;37.816;2022-08-21T01:22:04;40.38;;;27.55;;
74469;SDS011;62918;55.706;37.816;2022-08-21T01:22:36;39.78;;;29.95;;
74469;SDS011;62918;55.706;37.816;2022-08-21T01:23:06;39.88;;;29.50;;
74469;SDS011;62918;55.706;37.816;2022-08-21T01:23:38;42.33;;;29.55;;
74469;SDS011;62918;55.706;37.816;2022-08-21T01:24:11;43.03;;;29.30;;
74469;SDS011;62918;55.706;37.816;2022-08-21T01:24:43;45.08;;;29.80;;
74469;SDS011;62918;55.706;37.816;2022-08-21T01:25:14;44.17;;;29.48;;
74469;SDS011;62918;55.706;37.816;2022-08-21T01:25:46;40.75;;;28.27;;
74469;SDS011;62918;55.706;37.816;2022-08-21T01:26:18;48.10;;;30.40;;
74469;SDS011;62918;55.706;37.816;2022-08-21T01:26:54;42.17;;;29.50;;
74469;SDS011;62918;55.706;37.816;2022-08-21T01:27:25;48.58;;;30.40;;
74469;SDS011;62918;55.706;37.816;2022-08-21T01:27:55;41.95;;;30.70;;
74469;SDS011;62918;55.706;37.816;2022-08-21T01:28:31;40.97;;;29.02;;
74469;SDS011;62918;55.706;37.816;2022-08-21T01:29:07;45.50;;;28.48;;
74469;SDS011;62918;55.706;37.816;2022-08-21T01:29:43;39.08;;;27.25;;
74469;SDS011;62918;55.706;37.816;2022-08-21T01:30:21;41.45;;;28.92;;
74469;SDS011;62918;55.706;37.816;2022-08-21T01:30:54;45.25;;;30.20;;
74469;SDS011;62918;55.706;37.816;2022-08-21T01:31:26;44.85;;;28.75;;
74469;SDS011;62918;55.706;37.816;2022-08-21T01:31:58;41.53;;;29.08;;
74469;SDS011;62918;55.706;37.816;2022-08-21T01:32:33;44.28;;;29.60;;
74469;SDS011;62918;55.706;37.816;2022-08-21T01:33:04;42.47;;;28.73;;
74469;SDS011;62918;55.706;37.816;2022-08-21T01:33:34;43.35;;;29.25;;
74469;SDS011;62918;55.706;37.816;2022-08-21T01:34:05;43.45;;;29.08;;
74469;SDS011;62918;55.706;37.816;2022-08-21T01:34:37;46.15;;;30.98;;
74469;SDS011;62918;55.706;37.816;2022-08-21T01:35:09;42.63;;;29.05;;
74469;SDS011;62918;55.706;37.816;2022-08-21T01:35:42;41.80;;;29.55;;
74469;SDS011;62918;55.706;37.816;2022-08-21T01:36:13;46.10;;;29.45;;
74469;SDS011;62918;55.706;37.816;2022-08-21T01:36:43;45.92;;;32.30;;
74469;SDS011;62918;55.706;37.816;2022-08-21T01:37:15;48.25;;;30.63;;
74469;SDS011;62918;55.706;37.816;2022-08-21T01:37:47;42.42;;;32.40;;
74469;SDS011;62918;55.706;37.816;2022-08-21T01:38:18;44.17;;;30.98;;
74469;SDS011;62918;55.706;37.816;2022-08-21T01:38:49;41.78;;;30.48;;
74469;SDS011;62918;55.706;37.816;2022-08-21T01:39:20;50.10;;;29.85;;
74469;SDS011;62918;55.706;37.816;2022-08-21T01:39:55;44.53;;;29.73;;
74469;SDS011;62918;55.706;37.816;2022-08-21T01:40:26;41.38;;;29.92;;
74469;SDS011;62918;55.706;37.816;2022-08-21T01:40:56;38.03;;;29.13;;
74469;SDS011;62918;55.706;37.816;2022-08-21T01:41:27;40.10;;;30.33;;
74469;SDS011;62918;55.706;37.816;2022-08-21T01:41:57;43.03;;;29.00;;
74469;SDS011;62918;55.706;37.816;2022-08-21T01:42:28;42.80;;;30.48;;
74469;SDS011;62918;55.706;37.816;2022-08-21T01:42:59;44.75;;;29.65;;
74469;SDS011;62918;55.706;37.816;2022-08-21T01:43:29;40.75;;;30.27;;
74469;SDS011;62918;55.706;37.816;2022-08-21T01:44:00;41.63;;;29.45;;
74469;SDS011;62918;55.706;37.816;2022-08-21T01:44:31;45.38;;;30.70;;
74469;SDS011;62918;55.706;37.816;2022-08-21T01:45:03;41.25;;;30.35;;
74469;SDS011;62918;55.706;37.816;2022-08-21T01:45:35;40.45;;;29.05;;
74469;SDS011;62918;55.706;37.816;2022-08-21T01:46:05;41.08;;;29.55;;
74469;SDS011;62918;55.706;37.816;2022-08-21T01:46:36;46.45;;;31.35;;
74469;SDS011;62918;55.706;37.816;2022-08-21T01:47:07;42.65;;;30.38;;
74469;SDS011;62918;55.706;37.816;2022-08-21T01:47:41;41.80;;;29.88;;
74469;SDS011;62918;55.706;37.816;2022-08-21T01:48:12;45.92;;;32.25;;
74469;SDS011;62918;55.706;37.816;2022-08-21T01:48:42;40.85;;;30.65;;
74469;SDS011;62918;55.706;37.816;2022-08-21T01:49:13;47.72;;;31.17;;
74469;SDS011;62918;55.706;37.816;2022-08-21T01:49:45;46.38;;;32.22;;
74469;SDS011;62918;55.706;37.816;2022-08-21T01:50:16;43.20;;;31.42;;
74469;SDS011;62918;55.706;37.816;2022-08-21T01:50:48;42.90;;;31.02;;
74469;SDS011;62918;55.706;37.816;2022-08-21T01:51:19;44.55;;;31.10;;
74469;SDS011;62918;55.706;37.816;2022-08-21T01:51:49;44.00;;;31.00;;
74469;SDS011;62918;55.706;37.816;2022-08-21T01:52:20;46.65;;;31.67;;
74469;SDS011;62918;55.706;37.816;2022-08-21T01:52:50;46.33;;;31.23;;
74469;SDS011;62918;55.706;37.816;2022-08-21T01:53:21;44.47;;;32.20;;
74469;SDS011;62918;55.706;37.816;2022-08-21T01:53:52;43.65;;;30.73;;
74469;SDS011;62918;55.706;37.816;2022-08-21T01:54:23;43.40;;;30.35;;
74469;SDS011;62918;55.706;37.816;2022-08-21T01:54:53;42.90;;;32.22;;
74469;SDS011;62918;55.706;37.816;2022-08-21T01:55:24;49.60;;;32.42;;
74469;SDS011;62918;55.706;37.816;2022-08-21T01:55:54;46.15;;;30.73;;
74469;SDS011;62918;55.706;37.816;2022-08-21T01:56:25;42.35;;;30.77;;
74469;SDS011;62918;55.706;37.816;2022-08-21T01:56:56;45.78;;;29.88;;
74469;SDS011;62918;55.706;37.816;2022-08-21T01:57:28;45.97;;;30.02;;
74469;SDS011;62918;55.706;37.816;2022-08-21T01:57:59;44.67;;;30.13;;
74469;SDS011;62918;55.706;37.816;2022-08-21T01:58:30;43.92;;;31.73;;
74469;SDS011;62918;55.706;37.816;2022-08-21T01:59:00;46.85;;;31.83;;
74469;SDS011;62918;55.706;37.816;2022-08-21T01:59:33;45.35;;;30.55;;
74469;SDS011;62918;55.706;37.816;2022-08-21T02:00:07;44.08;;;30.05;;
74469;SDS011;62918;55.706;37.816;2022-08-21T02:00:40;42.50;;;29.08;;
74469;SDS011;62918;55.706;37.816;2022-08-21T02:01:11;47.22;;;31.95;;
74469;SDS011;62918;55.706;37.816;2022-08-21T02:01:42;43.60;;;30.23;;
74469;SDS011;62918;55.706;37.816;2022-08-21T02:02:13;45.42;;;30.40;;
74469;SDS011;62918;55.706;37.816;2022-08-21T02:02:43;44.00;;;30.50;;
74469;SDS011;62918;55.706;37.816;2022-08-21T02:03:14;48.50;;;32.38;;
74469;SDS011;62918;55.706;37.816;2022-08-21T02:03:44;41.88;;;29.50;;
74469;SDS011;62918;55.706;37.816;2022-08-21T02:04:15;43.35;;;30.63;;
74469;SDS011;62918;55.706;37.816;2022-08-21T02:04:46;44.97;;;32.20;;
74469;SDS011;62918;55.706;37.816;2022-08-21T02:05:16;43.67;;;31.80;;
74469;SDS011;62918;55.706;37.816;2022-08-21T02:05:48;42.50;;;29.80;;
74469;SDS011;62918;55.706;37.816;2022-08-21T02:06:18;45.10;;;32.42;;
74469;SDS011;62918;55.706;37.816;2022-08-21T02:06:49;46.95;;;32.13;;
74469;SDS011;62918;55.706;37.816;2022-08-21T02:07:20;43.83;;;31.15;;
74469;SDS011;62918;55.706;37.816;2022-08-21T02:07:54;43.15;;;31.17;;
74469;SDS011;62918;55.706;37.816;2022-08-21T02:08:25;42.67;;;30.90;;
74469;SDS011;62918;55.706;37.816;2022-08-21T02:08:57;47.05;;;32.05;;
74469;SDS011;62918;55.706;37.816;2022-08-21T02:09:27;46.05;;;31.50;;
74469;SDS011;62918;55.706;37.816;2022-08-21T02:09:58;46.22;;;30.85;;
74469;SDS011;62918;55.706;37.816;2022-08-21T02:10:30;45.55;;;31.17;;
74469;SDS011;62918;55.706;37.816;2022-08-21T02:11:02;45.58;;;30.58;;
74469;SDS011;62918;55.706;37.816;2022-08-21T02:11:32;44.75;;;29.33;;
74469;SDS011;62918;55.706;37.816;2022-08-21T02:12:04;42.97;;;32.13;;
74469;SDS011;62918;55.706;37.816;2022-08-21T02:12:35;42.97;;;29.67;;
74469;SDS011;62918;55.706;37.816;2022-08-21T02:13:05;48.63;;;32.60;;
74469;SDS011;62918;55.706;37.816;2022-08-21T02:13:37;46.55;;;31.10;;
74469;SDS011;62918;55.706;37.816;2022-08-21T02:14:08;42.20;;;29.55;;
74469;SDS011;62918;55.706;37.816;2022-08-21T02:14:39;46.92;;;31.13;;
74469;SDS011;62918;55.706;37.816;2022-08-21T02:15:10;43.90;;;31.02;;
74469;SDS011;62918;55.706;37.816;2022-08-21T02:15:40;48.28;;;31.80;;
74469;SDS011;62918;55.706;37.816;2022-08-21T02:16:11;46.20;;;32.50;;
74469;SDS011;62918;55.706;37.816;2022-08-21T02:16:43;44.72;;;30.95;;
74469;SDS011;62918;55.706;37.816;2022-08-21T02:17:14;45.50;;;29.70;;
74469;SDS011;62918;55.706;37.816;2022-08-21T02:17:50;47.65;;;34.30;;
74469;SDS011;62918;55.706;37.816;2022-08-21T02:18:23;50.55;;;34.15;;
74469;SDS011;62918;55.706;37.816;2022-08-21T02:18:53;43.20;;;31.80;;
74469;SDS011;62918;55.706;37.816;2022-08-21T02:19:24;44.85;;;31.05;;
74469;SDS011;62918;55.706;37.816;2022-08-21T02:19:54;45.60;;;32.60;;
74469;SDS011;62918;55.706;37.816;2022-08-21T02:20:30;42.03;;;29.90;;
74469;SDS011;62918;55.706;37.816;2022-08-21T02:21:04;44.95;;;31.98;;
74469;SDS011;62918;55.706;37.816;2022-08-21T02:21:35;45.97;;;31.52;;
74469;SDS011;62918;55.706;37.816;2022-08-21T02:22:09;45.03;;;31.80;;
74469;SDS011;62918;55.706;37.816;2022-08-21T02:22:40;45.08;;;32.25;;
74469;SDS011;62918;55.706;37.816;2022-08-21T02:23:10;44.40;;;32.65;;
74469;SDS011;62918;55.706;37.816;2022-08-21T02:23:42;45.35;;;31.85;;
74469;SDS011;62918;55.706;37.816;2022-08-21T02:24:12;47.80;;;30.40;;
74469;SDS011;62918;55.706;37.816;2022-08-21T02:24:43;46.22;;;32.92;;
74469;SDS011;62918;55.706;37.816;2022-08-21T02:25:14;47.90;;;32.85;;
74469;SDS011;62918;55.706;37.816;2022-08-21T02:25:44;43.08;;;32.35;;
74469;SDS011;62918;55.706;37.816;2022-08-21T02:26:15;47.55;;;34.15;;
74469;SDS011;62918;55.706;37.816;2022-08-21T02:26:46;48.95;;;35.17;;
74469;SDS011;62918;55.706;37.816;2022-08-21T02:27:16;47.50;;;32.33;;
74469;SDS011;62918;55.706;37.816;2022-08-21T02:27:47;51.47;;;33.75;;
74469;SDS011;62918;55.706;37.816;2022-08-21T02:28:18;45.92;;;31.70;;
74469;SDS011;62918;55.706;37.816;2022-08-21T02:28:48;46.88;;;33.17;;
74469;SDS011;62918;55.706;37.816;2022-08-21T02:29:19;46.92;;;33.03;;
74469;SDS011;62918;55.706;37.816;2022-08-21T02:29:50;50.80;;;33.08;;
74469;SDS011;62918;55.706;37.816;2022-08-21T02:30:22;47.50;;;32.38;;
74469;SDS011;62918;55.706;37.816;2022-08-21T02:30:55;46.47;;;32.78;;
74469;SDS011;62918;55.706;37.816;2022-08-21T02:31:26;44.88;;;31.95;;
74469;SDS011;62918;55.706;37.816;2022-08-21T02:31:57;48.25;;;33.60;;
74469;SDS011;62918;55.706;37.816;2022-08-21T02:32:27;52.58;;;33.50;;
74469;SDS011;62918;55.706;37.816;2022-08-21T02:32:58;47.10;;;33.47;;
74469;SDS011;62918;55.706;37.816;2022-08-21T02:33:29;47.10;;;32.10;;
74469;SDS011;62918;55.706;37.816;2022-08-21T02:34:00;50.58;;;33.60;;
74469;SDS011;62918;55.706;37.816;2022-08-21T02:34:30;48.40;;;32.13;;
74469;SDS011;62918;55.706;37.816;2022-08-21T02:35:01;47.97;;;33.72;;
74469;SDS011;62918;55.706;37.816;2022-08-21T02:35:31;44.83;;;33.85;;
74469;SDS011;62918;55.706;37.816;2022-08-21T02:36:02;48.25;;;32.42;;
74469;SDS011;62918;55.706;37.816;2022-08-21T02:36:34;49.15;;;35.00;;
74469;SDS011;62918;55.706;37.816;2022-08-21T02:37:04;45.53;;;33.38;;
74469;SDS011;62918;55.706;37.816;2022-08-21T02:37:46;43.78;;;32.63;;
74469;SDS011;62918;55.706;37.816;2022-08-21T02:38:20;46.47;;;32.00;;
74469;SDS011;62918;55.706;37.816;2022-08-21T02:38:53;45.75;;;31.83;;
74469;SDS011;62918;55.706;37.816;2022-08-21T02:39:23;55.17;;;33.67;;
74469;SDS011;62918;55.706;37.816;2022-08-21T02:39:54;51.25;;;34.53;;
74469;SDS011;62918;55.706;37.816;2022-08-21T02:40:26;46.78;;;33.97;;
74469;SDS011;62918;55.706;37.816;2022-08-21T02:40:58;50.55;;;35.88;;
74469;SDS011;62918;55.706;37.816;2022-08-21T02:41:29;46.08;;;31.92;;
74469;SDS011;62918;55.706;37.816;2022-08-21T02:42:00;53.38;;;34.63;;
74469;SDS011;62918;55.706;37.816;2022-08-21T02:42:30;45.03;;;31.83;;
74469;SDS011;62918;55.706;37.816;2022-08-21T02:43:02;48.55;;;33.45;;
74469;SDS011;62918;55.706;37.816;2022-08-21T02:43:34;50.88;;;36.53;;
74469;SDS011;62918;55.706;37.816;2022-08-21T02:44:05;45.22;;;33.78;;
74469;SDS011;62918;55.706;37.816;2022-08-21T02:44:36;46.47;;;34.40;;
74469;SDS011;62918;55.706;37.816;2022-08-21T02:45:07;49.22;;;34.42;;
74469;SDS011;62918;55.706;37.816;2022-08-21T02:45:39;49.13;;;34.35;;
74469;SDS011;62918;55.706;37.816;2022-08-21T02:46:16;47.60;;;33.55;;
74469;SDS011;62918;55.706;37.816;2022-08-21T02:47:19;50.72;;;35.28;;
74469;SDS011;62918;55.706;37.816;2022-08-21T02:47:51;50.20;;;34.72;;
74469;SDS011;62918;55.706;37.816;2022-08-21T02:48:24;46.67;;;34.63;;
74469;SDS011;62918;55.706;37.816;2022-08-21T02:48:57;49.28;;;34.63;;
74469;SDS011;62918;55.706;37.816;2022-08-21T02:49:27;54.35;;;36.63;;
74469;SDS011;62918;55.706;37.816;2022-08-21T02:49:58;46.00;;;35.85;;
74469;SDS011;62918;55.706;37.816;2022-08-21T02:50:30;48.75;;;35.45;;
74469;SDS011;62918;55.706;37.816;2022-08-21T02:51:07;47.15;;;35.28;;
74469;SDS011;62918;55.706;37.816;2022-08-21T02:51:40;51.05;;;36.55;;
74469;SDS011;62918;55.706;37.816;2022-08-21T02:52:11;48.70;;;34.15;;
74469;SDS011;62918;55.706;37.816;2022-08-21T02:52:41;54.47;;;36.97;;
74469;SDS011;62918;55.706;37.816;2022-08-21T02:53:12;52.88;;;36.15;;
74469;SDS011;62918;55.706;37.816;2022-08-21T02:53:46;50.42;;;36.53;;
74469;SDS011;62918;55.706;37.816;2022-08-21T02:54:18;53.25;;;38.05;;
74469;SDS011;62918;55.706;37.816;2022-08-21T02:54:48;53.72;;;37.20;;
74469;SDS011;62918;55.706;37.816;2022-08-21T02:55:19;50.38;;;35.97;;
74469;SDS011;62918;55.706;37.816;2022-08-21T02:56:22;55.15;;;36.70;;
74469;SDS011;62918;55.706;37.816;2022-08-21T02:56:52;51.28;;;36.78;;
74469;SDS011;62918;55.706;37.816;2022-08-21T02:57:23;52.15;;;36.60;;
74469;SDS011;62918;55.706;37.816;2022-08-21T02:57:54;49.45;;;35.17;;
74469;SDS011;62918;55.706;37.816;2022-08-21T02:58:27;54.45;;;37.38;;
74469;SDS011;62918;55.706;37.816;2022-08-21T02:59:01;53.78;;;35.50;;
74469;SDS011;62918;55.706;37.816;2022-08-21T02:59:31;53.30;;;35.90;;
74469;SDS011;62918;55.706;37.816;2022-08-21T03:00:03;49.90;;;36.50;;
74469;SDS011;62918;55.706;37.816;2022-08-21T03:00:35;55.00;;;37.33;;
74469;SDS011;62918;55.706;37.816;2022-08-21T03:01:07;54.63;;;36.78;;
74469;SDS011;62918;55.706;37.816;2022-08-21T03:01:41;50.00;;;35.53;;
74469;SDS011;62918;55.706;37.816;2022-08-21T03:02:11;50.55;;;35.75;;
74469;SDS011;62918;55.706;37.816;2022-08-21T03:02:42;57.13;;;37.88;;
74469;SDS011;62918;55.706;37.816;2022-08-21T03:03:12;50.80;;;37.38;;
74469;SDS011;62918;55.706;37.816;2022-08-21T03:03:45;55.83;;;38.67;;
74469;SDS011;62918;55.706;37.816;2022-08-21T03:04:19;51.42;;;37.80;;
74469;SDS011;62918;55.706;37.816;2022-08-21T03:04:50;50.67;;;35.83;;
74469;SDS011;62918;55.706;37.816;2022-08-21T03:05:20;51.70;;;37.53;;
74469;SDS011;62918;55.706;37.816;2022-08-21T03:05:51;53.08;;;37.20;;
74469;SDS011;62918;55.706;37.816;2022-08-21T03:06:22;53.38;;;38.22;;
74469;SDS011;62918;55.706;37.816;2022-08-21T03:06:54;51.45;;;40.22;;